sensor_id;sensor_type;location;lat;lon;timestamp;P1;durP1;ratioP1;P2;durP2;ratioP2
57842;SDS011;43673;51.058;3.734;2022-11-15T13:43:46;8.10;;;2.83;;
57842;SDS011;43673;51.058;3.734;2022-11-15T14:00:05;4.03;;;1.98;;
57842;SDS011;43673;51.058;3.734;2022-11-15T14:36:19;3.30;;;2.30;;
57842;SDS011;43673;51.058;3.734;2022-11-15T16:40:38;5.82;;;4.40;;
57842;SDS011;43673;51.058;3.734;2022-11-15T17:11:53;8.60;;;5.85;;
57842;SDS011;43673;51.058;3.734;2022-11-15T17:19:34;9.38;;;5.93;;
57842;SDS011;43673;51.058;3.734;2022-11-15T17:30:47;5.72;;;4.93;;
57842;SDS011;43673;51.058;3.734;2022-11-15T19:42:48;12.75;;;7.47;;
57842;SDS011;43673;51.058;3.734;2022-11-15T19:45:14;13.98;;;8.18;;
57842;SDS011;43673;51.058;3.734;2022-11-15T19:47:40;8.95;;;7.45;;
57842;SDS011;43673;51.058;3.734;2022-11-15T19:50:12;8.60;;;6.90;;
57842;SDS011;43673;51.058;3.734;2022-11-15T19:52:49;8.70;;;6.40;;
57842;SDS011;43673;51.058;3.734;2022-11-15T19:55:15;8.10;;;6.82;;
57842;SDS011;43673;51.058;3.734;2022-11-15T19:58:14;10.98;;;7.55;;
57842;SDS011;43673;51.058;3.734;2022-11-15T20:01:01;9.27;;;7.72;;
57842;SDS011;43673;51.058;3.734;2022-11-15T20:03:34;7.93;;;6.82;;
57842;SDS011;43673;51.058;3.734;2022-11-15T20:14:16;8.48;;;7.35;;
57842;SDS011;43673;51.058;3.734;2022-11-15T20:16:45;9.55;;;8.13;;
57842;SDS011;43673;51.058;3.734;2022-11-15T20:27:44;10.13;;;8.40;;
57842;SDS011;43673;51.058;3.734;2022-11-15T20:30:33;8.65;;;7.72;;
57842;SDS011;43673;51.058;3.734;2022-11-15T20:33:42;9.68;;;7.47;;
57842;SDS011;43673;51.058;3.734;2022-11-15T20:36:27;9.43;;;7.25;;
57842;SDS011;43673;51.058;3.734;2022-11-15T20:38:58;10.95;;;7.68;;
57842;SDS011;43673;51.058;3.734;2022-11-15T20:51:53;11.27;;;7.72;;
57842;SDS011;43673;51.058;3.734;2022-11-15T20:54:20;10.73;;;7.47;;
57842;SDS011;43673;51.058;3.734;2022-11-15T20:56:49;12.02;;;8.82;;
57842;SDS011;43673;51.058;3.734;2022-11-15T20:59:16;13.95;;;8.27;;
57842;SDS011;43673;51.058;3.734;2022-11-15T21:01:41;10.80;;;8.70;;
57842;SDS011;43673;51.058;3.734;2022-11-15T21:04:07;13.52;;;8.85;;
57842;SDS011;43673;51.058;3.734;2022-11-15T21:06:39;10.30;;;8.65;;
57842;SDS011;43673;51.058;3.734;2022-11-15T21:09:19;10.20;;;7.93;;
57842;SDS011;43673;51.058;3.734;2022-11-15T21:12:20;11.02;;;8.43;;
57842;SDS011;43673;51.058;3.734;2022-11-15T21:14:49;14.32;;;9.02;;
57842;SDS011;43673;51.058;3.734;2022-11-15T21:22:49;10.68;;;8.50;;
57842;SDS011;43673;51.058;3.734;2022-11-15T21:25:51;10.57;;;7.43;;
57842;SDS011;43673;51.058;3.734;2022-11-15T21:33:43;11.25;;;8.07;;
57842;SDS011;43673;51.058;3.734;2022-11-15T21:36:10;11.55;;;8.68;;
57842;SDS011;43673;51.058;3.734;2022-11-15T21:38:37;10.00;;;8.07;;
57842;SDS011;43673;51.058;3.734;2022-11-15T21:41:10;10.68;;;7.85;;
57842;SDS011;43673;51.058;3.734;2022-11-15T21:43:36;11.18;;;8.70;;
57842;SDS011;43673;51.058;3.734;2022-11-15T21:46:03;12.00;;;9.50;;
57842;SDS011;43673;51.058;3.734;2022-11-15T21:48:30;10.18;;;7.57;;
57842;SDS011;43673;51.058;3.734;2022-11-15T21:51:04;10.43;;;8.18;;
57842;SDS011;43673;51.058;3.734;2022-11-15T21:53:32;9.25;;;8.10;;
57842;SDS011;43673;51.058;3.734;2022-11-15T21:56:00;10.95;;;8.15;;
57842;SDS011;43673;51.058;3.734;2022-11-15T21:58:26;11.23;;;8.98;;
57842;SDS011;43673;51.058;3.734;2022-11-15T22:00:53;8.05;;;7.25;;
57842;SDS011;43673;51.058;3.734;2022-11-15T22:03:37;11.55;;;7.72;;
57842;SDS011;43673;51.058;3.734;2022-11-15T22:06:03;8.68;;;7.68;;
57842;SDS011;43673;51.058;3.734;2022-11-15T22:08:29;8.65;;;7.22;;
57842;SDS011;43673;51.058;3.734;2022-11-15T22:10:55;10.32;;;8.77;;
57842;SDS011;43673;51.058;3.734;2022-11-15T22:13:21;10.77;;;8.10;;
57842;SDS011;43673;51.058;3.734;2022-11-15T22:15:48;8.88;;;7.07;;
57842;SDS011;43673;51.058;3.734;2022-11-15T22:18:15;9.85;;;7.93;;
57842;SDS011;43673;51.058;3.734;2022-11-15T22:23:39;7.53;;;6.68;;
57842;SDS011;43673;51.058;3.734;2022-11-15T22:26:05;9.60;;;7.68;;
57842;SDS011;43673;51.058;3.734;2022-11-15T22:28:32;13.10;;;7.32;;
57842;SDS011;43673;51.058;3.734;2022-11-15T22:31:18;9.00;;;7.63;;
57842;SDS011;43673;51.058;3.734;2022-11-15T22:33:44;8.70;;;6.85;;
57842;SDS011;43673;51.058;3.734;2022-11-15T22:36:10;7.22;;;6.43;;
57842;SDS011;43673;51.058;3.734;2022-11-15T22:38:37;8.27;;;6.70;;
57842;SDS011;43673;51.058;3.734;2022-11-15T22:41:02;6.82;;;6.13;;
57842;SDS011;43673;51.058;3.734;2022-11-15T22:43:28;9.35;;;6.97;;
57842;SDS011;43673;51.058;3.734;2022-11-15T22:46:06;7.75;;;5.45;;
57842;SDS011;43673;51.058;3.734;2022-11-15T22:48:34;9.15;;;6.20;;
57842;SDS011;43673;51.058;3.734;2022-11-15T22:51:00;8.32;;;6.55;;
57842;SDS011;43673;51.058;3.734;2022-11-15T22:53:27;7.63;;;6.25;;
57842;SDS011;43673;51.058;3.734;2022-11-15T22:55:57;10.77;;;6.38;;
57842;SDS011;43673;51.058;3.734;2022-11-15T22:58:25;10.45;;;7.13;;
57842;SDS011;43673;51.058;3.734;2022-11-15T23:00:53;6.88;;;6.15;;
57842;SDS011;43673;51.058;3.734;2022-11-15T23:03:21;12.30;;;6.07;;
57842;SDS011;43673;51.058;3.734;2022-11-15T23:05:47;8.10;;;5.72;;
57842;SDS011;43673;51.058;3.734;2022-11-15T23:08:14;6.70;;;5.78;;
57842;SDS011;43673;51.058;3.734;2022-11-15T23:10:40;6.30;;;5.75;;
57842;SDS011;43673;51.058;3.734;2022-11-15T23:13:25;7.47;;;6.10;;
57842;SDS011;43673;51.058;3.734;2022-11-15T23:16:03;6.57;;;4.78;;
57842;SDS011;43673;51.058;3.734;2022-11-15T23:18:50;7.18;;;5.45;;
57842;SDS011;43673;51.058;3.734;2022-11-15T23:21:21;5.78;;;5.18;;
57842;SDS011;43673;51.058;3.734;2022-11-15T23:24:20;7.60;;;4.80;;
57842;SDS011;43673;51.058;3.734;2022-11-15T23:26:48;6.05;;;4.75;;
57842;SDS011;43673;51.058;3.734;2022-11-15T23:29:17;5.40;;;4.90;;
57842;SDS011;43673;51.058;3.734;2022-11-15T23:31:44;6.57;;;4.32;;
57842;SDS011;43673;51.058;3.734;2022-11-15T23:34:29;7.22;;;4.38;;
57842;SDS011;43673;51.058;3.734;2022-11-15T23:36:56;6.30;;;4.45;;
57842;SDS011;43673;51.058;3.734;2022-11-15T23:39:23;8.30;;;5.45;;
57842;SDS011;43673;51.058;3.734;2022-11-15T23:41:49;7.40;;;4.50;;
57842;SDS011;43673;51.058;3.734;2022-11-15T23:44:15;5.30;;;4.07;;
57842;SDS011;43673;51.058;3.734;2022-11-15T23:46:41;6.22;;;3.70;;
57842;SDS011;43673;51.058;3.734;2022-11-15T23:49:09;6.93;;;4.47;;
57842;SDS011;43673;51.058;3.734;2022-11-15T23:51:34;8.15;;;4.05;;
57842;SDS011;43673;51.058;3.734;2022-11-15T23:54:00;4.82;;;3.60;;
57842;SDS011;43673;51.058;3.734;2022-11-15T23:56:27;4.93;;;3.17;;
57842;SDS011;43673;51.058;3.734;2022-11-15T23:58:52;4.90;;;3.28;;
